Time;durP1;ratioP1;P1;durP2;ratioP2;P2;SDS_P1;SDS_P2;PMS_P1;PMS_P2;Temp;Humidity;BMP_temperature;BMP_pressure;BME280_temperature;BME280_humidity;BME280_pressure;Samples;Min_cycle;Max_cycle;Signal;HPM_P1;HPM_P2
2023/11/01 00:01:24;;;;;;;4.85;1.30;;;;;;;-146.27;91.59;83063.22;5017310;28;20541;-73
2023/11/01 00:03:49;;;;;;;8.95;1.90;;;;;;;-146.27;91.70;83071.25;5040789;28;20116;-74
2023/11/01 00:06:15;;;;;;;8.13;2.05;;;;;;;-146.27;91.02;83063.22;5026994;28;20433;-73
2023/11/01 00:08:40;;;;;;;7.30;2.10;;;;;;;-146.27;90.91;82968.78;5025169;28;20025;-73
2023/11/01 00:11:05;;;;;;;6.30;1.70;;;;;;;-146.27;90.84;83047.16;5023271;28;20040;-74
2023/11/01 00:13:31;;;;;;;10.48;1.85;;;;;;;-146.27;91.79;83041.13;5019600;28;20029;-74
2023/11/01 00:15:56;;;;;;;8.68;2.40;;;;;;;-146.27;91.84;83071.25;5029320;28;20009;-74
2023/11/01 00:18:21;;;;;;;10.13;2.13;;;;;;;-146.27;91.39;83057.19;5023711;28;20026;-74
2023/11/01 00:20:47;;;;;;;8.73;2.75;;;;;;;-146.27;91.18;83057.19;5024356;28;20025;-74
2023/11/01 00:23:12;;;;;;;11.60;2.03;;;;;;;-146.27;90.60;83015.00;5027298;28;20034;-74
2023/11/01 00:25:37;;;;;;;7.30;2.92;;;;;;;-146.27;90.38;83006.97;5036873;28;20108;-74
2023/11/01 00:28:03;;;;;;;8.98;2.28;;;;;;;-146.27;90.56;83015.00;5037671;28;20029;-74
2023/11/01 00:30:28;;;;;;;12.20;2.95;;;;;;;-146.27;90.37;83019.03;5035279;28;20029;-74
2023/11/01 00:32:55;;;;;;;8.98;2.17;;;;;;;-146.27;90.65;83008.97;5025133;28;20057;-73
2023/11/01 00:35:20;;;;;;;8.13;2.05;;;;;;;-146.27;90.96;83075.28;5038872;28;20064;-74
2023/11/01 00:37:46;;;;;;;9.77;2.17;;;;;;;-146.27;91.33;83103.41;5027418;28;20052;-73
2023/11/01 00:40:11;;;;;;;9.05;2.88;;;;;;;-146.27;91.11;83004.94;5037144;28;20025;-74
2023/11/01 00:42:37;;;;;;;11.43;3.00;;;;;;;-146.27;90.79;83031.06;5023267;28;20036;-73
2023/11/01 00:45:04;;;;;;;12.20;3.40;;;;;;;-146.27;91.18;83055.19;5022240;28;20029;-74
2023/11/01 00:47:29;;;;;;;11.38;4.10;;;;;;;-146.27;91.47;83051.16;5022431;28;20041;-74
2023/11/01 00:49:54;;;;;;;17.90;5.05;;;;;;;-146.27;91.18;83019.03;5020974;28;20022;-74
2023/11/01 00:52:20;;;;;;;20.08;5.38;;;;;;;-146.27;92.22;83047.16;5038179;28;20507;-74
2023/11/01 00:54:45;;;;;;;15.23;4.97;;;;;;;-146.27;91.59;83004.94;5027712;28;20489;-73
2023/11/01 00:57:11;;;;;;;12.88;5.45;;;;;;;-146.27;91.82;83059.19;5033296;28;20101;-73
2023/11/01 00:59:36;;;;;;;25.05;6.65;;;;;;;-146.27;91.52;82994.91;5024098;28;20028;-73
2023/11/01 01:02:01;;;;;;;19.52;6.80;;;;;;;-146.27;91.41;83063.22;5011663;28;20032;-73
2023/11/01 01:04:47;;;;;;;15.10;6.85;;;;;;;-146.27;92.87;83099.38;5014892;28;20067;-73
2023/11/01 01:07:13;;;;;;;17.27;6.72;;;;;;;-146.27;92.01;82998.94;5009406;28;20037;-73
2023/11/01 01:09:38;;;;;;;16.60;7.25;;;;;;;-146.27;92.17;83083.31;5010611;28;20389;-73
2023/11/01 01:12:04;;;;;;;11.75;6.30;;;;;;;-146.27;92.68;83075.28;5015169;28;20022;-73
2023/11/01 01:14:29;;;;;;;14.10;6.43;;;;;;;-146.27;92.58;83099.38;5024790;28;20034;-73
2023/11/01 01:16:55;;;;;;;17.33;6.22;;;;;;;-146.27;91.58;83045.13;4971176;28;1381911;-73
2023/11/01 01:19:22;;;;;;;20.55;6.72;;;;;;;-146.27;91.40;83035.09;5029112;28;20144;-74
2023/11/01 01:21:47;;;;;;;21.65;6.50;;;;;;;-146.27;91.23;83079.28;5027774;28;20025;-73
2023/11/01 01:24:13;;;;;;;14.68;6.30;;;;;;;-146.27;91.45;83033.09;5033904;28;20040;-73
2023/11/01 01:26:38;;;;;;;12.07;6.20;;;;;;;-146.27;91.79;83051.16;5036923;28;20057;-73
2023/11/01 01:29:03;;;;;;;19.50;6.95;;;;;;;-146.27;91.88;83095.38;5038992;28;20374;-73
2023/11/01 01:31:29;;;;;;;13.93;6.65;;;;;;;-146.27;92.19;83079.28;5031561;28;20099;-73
2023/11/01 01:33:55;;;;;;;14.32;7.32;;;;;;;-146.27;91.43;83000.94;5031256;28;20032;-73
2023/11/01 01:36:20;;;;;;;14.38;6.40;;;;;;;-146.27;91.12;83055.19;5036021;28;20044;-73
2023/11/01 01:38:45;;;;;;;19.98;6.95;;;;;;;-146.27;92.03;83097.38;5039890;28;20040;-72
2023/11/01 01:41:11;;;;;;;20.98;7.15;;;;;;;-146.27;92.17;83087.31;5027836;28;20017;-73
2023/11/01 01:43:36;;;;;;;18.83;7.47;;;;;;;-146.27;91.56;83069.25;5023461;28;20397;-73
2023/11/01 01:46:09;;;;;;;11.00;5.82;;;;;;;-146.27;91.38;83079.28;5024880;28;20120;-73
2023/11/01 01:48:35;;;;;;;17.70;6.68;;;;;;;-146.27;90.92;83025.03;5024725;28;20024;-73
2023/11/01 01:51:02;;;;;;;13.75;6.93;;;;;;;-146.27;90.58;82994.91;5027510;28;20040;-73
2023/11/01 01:53:28;;;;;;;13.70;5.82;;;;;;;-146.27;90.91;83019.03;5026821;28;20032;-73
2023/11/01 01:55:54;;;;;;;15.35;5.80;;;;;;;-146.27;90.81;83047.16;5041437;28;20052;-73
2023/11/01 01:58:20;;;;;;;12.57;5.35;;;;;;;-146.27;90.52;83019.03;5029773;28;20063;-73
2023/11/01 02:00:48;;;;;;;10.57;4.97;;;;;;;-146.27;90.89;83027.06;5027299;28;20020;-73
2023/11/01 02:03:14;;;;;;;17.65;5.40;;;;;;;-146.27;91.15;83047.16;5032423;28;20025;-73
2023/11/01 02:05:40;;;;;;;13.20;4.53;;;;;;;-146.27;90.45;83035.09;5038115;28;20037;-73
2023/11/01 02:08:05;;;;;;;12.38;4.60;;;;;;;-146.27;90.32;83063.22;5028763;28;20080;-73
2023/11/01 02:10:31;;;;;;;10.85;4.07;;;;;;;-146.27;90.28;82988.88;5016976;28;20113;-73
2023/11/01 02:12:56;;;;;;;9.48;3.83;;;;;;;-146.27;89.99;83035.09;5038503;28;20032;-73
2023/11/01 02:15:22;;;;;;;13.63;4.05;;;;;;;-146.27;90.40;83063.22;5037574;28;20048;-73
2023/11/01 02:17:47;;;;;;;12.80;3.83;;;;;;;-146.27;90.66;83071.25;5032169;28;20034;-73
2023/11/01 02:20:13;;;;;;;11.38;4.13;;;;;;;-146.27;90.47;83059.19;5032644;28;20504;-73
2023/11/01 02:22:39;;;;;;;10.65;4.05;;;;;;;-146.27;91.08;83075.28;5027930;28;20081;-72
2023/11/01 02:25:05;;;;;;;8.35;4.28;;;;;;;-146.27;91.31;83091.34;5021412;28;20029;-71
2023/11/01 02:27:31;;;;;;;10.00;4.57;;;;;;;-146.27;90.72;83045.13;5028764;28;20048;-71
2023/11/01 02:29:56;;;;;;;11.02;4.97;;;;;;;-146.27;90.26;83071.25;5021882;28;21022;-70
2023/11/01 02:32:27;;;;;;;8.13;4.13;;;;;;;-146.27;90.17;83067.25;5015371;28;20073;-71
2023/11/01 02:34:53;;;;;;;7.85;4.13;;;;;;;-146.27;91.05;83105.41;5041752;28;20111;-72
2023/11/01 02:37:18;;;;;;;13.07;3.80;;;;;;;-146.27;90.48;83071.25;5043570;28;20041;-71
2023/11/01 02:39:43;;;;;;;10.30;3.33;;;;;;;-146.27;90.21;83047.16;5021268;28;20061;-70
2023/11/01 02:42:09;;;;;;;11.32;3.70;;;;;;;-146.27;90.55;83083.31;5031316;28;20036;-70
2023/11/01 02:44:34;;;;;;;12.23;3.25;;;;;;;-146.27;90.27;83033.09;5032061;28;20052;-70
2023/11/01 02:46:59;;;;;;;12.23;3.10;;;;;;;-146.27;90.68;83093.34;5032204;28;20064;-72
2023/11/01 02:49:25;;;;;;;7.25;3.08;;;;;;;-146.27;90.15;83039.09;5016754;28;20026;-71
2023/11/01 02:51:51;;;;;;;4.15;2.55;;;;;;;-146.27;89.96;83027.06;5029617;28;20037;-71
2023/11/01 02:54:16;;;;;;;10.13;2.53;;;;;;;-146.27;90.07;83059.19;5027929;28;20021;-72
2023/11/01 02:56:42;;;;;;;8.13;2.38;;;;;;;-146.27;90.08;83055.19;5030447;28;20025;-71
2023/11/01 02:59:07;;;;;;;10.07;3.10;;;;;;;-146.27;90.07;83041.13;5029983;28;20031;-71
2023/11/01 03:01:33;;;;;;;9.73;4.07;;;;;;;-146.27;89.96;82994.91;5023872;28;20107;-72
2023/11/01 03:03:58;;;;;;;11.05;5.40;;;;;;;-146.27;89.88;83033.09;5025969;28;20024;-71
2023/11/01 03:06:24;;;;;;;10.32;5.20;;;;;;;-146.27;90.17;83089.34;5029188;28;20057;-71
2023/11/01 03:08:50;;;;;;;12.23;6.57;;;;;;;-146.27;90.35;83059.19;5024785;28;20075;-71
2023/11/01 03:11:15;;;;;;;11.55;6.15;;;;;;;-146.27;90.13;83075.28;5029499;28;20037;-71
2023/11/01 03:13:41;;;;;;;20.05;7.15;;;;;;;-146.27;90.29;83055.19;5024265;28;20088;-71
2023/11/01 03:16:07;;;;;;;11.27;6.63;;;;;;;-146.27;90.29;83051.16;5032502;28;20049;-71
2023/11/01 03:18:32;;;;;;;19.30;8.75;;;;;;;-146.27;90.17;83041.13;5030425;28;20025;-71
2023/11/01 03:20:57;;;;;;;14.93;8.63;;;;;;;-146.27;90.63;83071.25;5013460;28;20084;-71
2023/11/01 03:23:23;;;;;;;24.38;9.48;;;;;;;-146.27;90.88;83087.31;5024086;28;20022;-71
2023/11/01 03:25:48;;;;;;;18.95;9.70;;;;;;;-146.27;90.75;83039.09;5027009;28;20022;-71
2023/11/01 03:28:13;;;;;;;17.17;9.00;;;;;;;-146.27;90.82;83091.34;5016883;28;20029;-72
2023/11/01 03:30:39;;;;;;;15.88;8.93;;;;;;;-146.27;90.42;83019.03;5030614;28;20043;-73
2023/11/01 03:33:04;;;;;;;18.55;9.63;;;;;;;-146.27;90.30;83041.13;5036470;28;20044;-73
2023/11/01 03:35:29;;;;;;;15.35;9.13;;;;;;;-146.27;90.02;83025.03;5038942;28;20029;-73
2023/11/01 03:37:55;;;;;;;18.42;10.07;;;;;;;-146.27;90.36;83037.09;5044608;28;20020;-73
2023/11/01 03:40:20;;;;;;;17.90;9.77;;;;;;;-146.27;90.13;83021.03;5036871;28;20029;-73
2023/11/01 03:42:46;;;;;;;22.80;10.75;;;;;;;-146.27;90.35;83047.16;5037131;28;20390;-73
2023/11/01 03:45:11;;;;;;;14.55;9.80;;;;;;;-146.27;90.40;83075.28;5044143;28;20060;-73
2023/11/01 03:47:37;;;;;;;18.40;10.57;;;;;;;-146.27;90.29;83051.16;5029249;28;20601;-72
2023/11/01 03:50:02;;;;;;;18.48;10.48;;;;;;;-146.27;90.51;83051.16;5029071;28;20030;-73
2023/11/01 03:52:27;;;;;;;14.52;9.57;;;;;;;-146.27;90.33;83047.16;5041193;28;20033;-73
2023/11/01 03:54:53;;;;;;;20.60;9.30;;;;;;;-146.27;90.10;83055.19;5044047;28;20393;-73
2023/11/01 03:57:19;;;;;;;18.80;10.77;;;;;;;-146.27;90.07;83023.03;5027587;28;20044;-72
2023/11/01 03:59:45;;;;;;;14.15;8.75;;;;;;;-146.27;89.98;83031.06;5031288;28;20083;-72
2023/11/01 04:02:10;;;;;;;22.63;9.27;;;;;;;-146.27;90.04;83017.00;5025476;28;20474;-73
2023/11/01 04:04:35;;;;;;;17.08;8.93;;;;;;;-146.27;90.34;83047.16;5023906;28;20090;-72
2023/11/01 04:07:01;;;;;;;14.13;7.93;;;;;;;-146.27;90.10;83000.94;5033858;28;20103;-73
2023/11/01 04:09:26;;;;;;;14.25;8.68;;;;;;;-146.27;90.23;83031.06;5032503;28;20033;-74
2023/11/01 04:11:52;;;;;;;13.90;7.38;;;;;;;-146.27;90.07;83019.03;5021763;28;20064;-73
2023/11/01 04:14:17;;;;;;;13.45;7.60;;;;;;;-146.27;90.24;82984.88;5020181;28;20091;-73
2023/11/01 04:16:43;;;;;;;13.45;7.15;;;;;;;-146.27;90.42;83059.19;5026760;28;20041;-73
2023/11/01 04:19:08;;;;;;;12.70;6.57;;;;;;;-146.27;90.51;83019.03;5017432;28;20427;-72
2023/11/01 04:21:33;;;;;;;12.15;6.65;;;;;;;-146.27;90.66;83031.06;5029217;28;20482;-72
2023/11/01 04:23:59;;;;;;;15.18;7.15;;;;;;;-146.27;91.26;83073.25;5023566;28;20050;-72
2023/11/01 04:26:24;;;;;;;14.05;7.10;;;;;;;-146.27;91.39;83077.28;5033175;28;20021;-72
2023/11/01 04:28:49;;;;;;;9.27;6.82;;;;;;;-146.27;90.81;82978.84;5023301;28;20037;-72
2023/11/01 04:31:15;;;;;;;12.35;7.53;;;;;;;-146.27;91.02;83059.19;5040711;28;20025;-73
2023/11/01 04:33:41;;;;;;;11.73;7.63;;;;;;;-146.27;90.98;83043.13;5029737;28;20040;-73
2023/11/01 04:36:08;;;;;;;13.07;7.22;;;;;;;-146.27;91.09;83033.09;5037729;28;20025;-73
2023/11/01 04:38:37;;;;;;;12.80;7.22;;;;;;;-146.27;91.50;83027.06;5037239;28;20061;-73
2023/11/01 04:41:03;;;;;;;14.05;7.78;;;;;;;-146.27;91.85;83055.19;5039676;28;20032;-71
2023/11/01 04:43:29;;;;;;;14.45;7.85;;;;;;;-146.27;91.63;83023.03;5042958;28;20033;-72
2023/11/01 04:45:55;;;;;;;13.43;8.45;;;;;;;-146.27;91.62;83019.03;5042054;28;20119;-72
2023/11/01 04:48:21;;;;;;;14.27;8.43;;;;;;;-146.27;91.60;83043.13;5030654;28;20145;-72
2023/11/01 04:50:48;;;;;;;12.43;8.85;;;;;;;-146.27;91.72;83035.09;5028660;28;20038;-73
2023/11/01 04:53:14;;;;;;;18.33;9.40;;;;;;;-146.27;92.16;83006.97;5028751;28;20025;-72
2023/11/01 04:55:39;;;;;;;15.68;9.63;;;;;;;-146.27;91.98;83015.00;5027066;28;20283;-72
2023/11/01 04:58:05;;;;;;;15.88;9.95;;;;;;;-146.27;93.06;83031.06;5024734;28;20507;-72
2023/11/01 05:00:30;;;;;;;18.20;10.32;;;;;;;-146.27;92.87;83015.00;5023582;28;20500;-72
2023/11/01 05:02:55;;;;;;;22.55;9.88;;;;;;;-146.27;92.99;83025.03;5027614;28;20409;-72
2023/11/01 05:05:21;;;;;;;16.20;10.10;;;;;;;-146.27;93.99;83059.19;5025147;28;20516;-72
2023/11/01 05:07:46;;;;;;;16.13;10.00;;;;;;;-146.27;93.24;82984.88;5027703;28;20112;-72
2023/11/01 05:10:11;;;;;;;17.63;8.95;;;;;;;-146.27;93.23;83019.03;5025206;28;20374;-72
2023/11/01 05:12:37;;;;;;;15.90;9.07;;;;;;;-146.27;93.55;83033.09;5028875;28;20384;-72
2023/11/01 05:15:02;;;;;;;12.57;8.82;;;;;;;-146.27;93.84;82994.91;5020293;28;20047;-72
2023/11/01 05:17:28;;;;;;;14.43;8.18;;;;;;;-146.27;93.34;82944.69;5030674;28;20034;-72
2023/11/01 05:19:54;;;;;;;11.13;7.75;;;;;;;-146.27;92.89;82954.72;5030630;28;20036;-72
2023/11/01 05:22:19;;;;;;;15.02;8.00;;;;;;;-146.27;94.07;82974.81;5038742;28;20437;-72
2023/11/01 05:24:52;;;;;;;12.07;8.43;;;;;;;-146.27;94.39;83010.97;5032890;28;20529;-73
2023/11/01 05:27:19;;;;;;;16.13;9.17;;;;;;;-146.27;94.30;82946.69;5044438;28;20025;-72
2023/11/01 05:29:45;;;;;;;14.15;9.13;;;;;;;-146.27;94.19;82992.91;5028198;28;20018;-73
2023/11/01 05:32:11;;;;;;;16.02;10.48;;;;;;;-146.27;94.55;82974.81;5026917;28;20156;-72
2023/11/01 05:34:36;;;;;;;16.80;10.63;;;;;;;-146.27;93.89;82906.50;5017194;28;20037;-73
2023/11/01 05:37:03;;;;;;;20.98;10.82;;;;;;;-146.27;95.00;82962.75;5033484;28;20032;-72
2023/11/01 05:39:28;;;;;;;17.63;11.30;;;;;;;-146.27;94.80;82960.75;5030835;28;20035;-72
2023/11/01 05:41:54;;;;;;;26.52;10.52;;;;;;;-146.27;94.32;82904.50;5036418;28;20033;-74
2023/11/01 05:44:19;;;;;;;21.27;10.18;;;;;;;-146.27;93.40;82906.50;5041723;28;20400;-73
2023/11/01 05:46:45;;;;;;;23.05;8.50;;;;;;;-146.27;94.46;82890.44;5039356;28;20692;-73
2023/11/01 05:49:11;;;;;;;19.27;9.15;;;;;;;-146.27;95.14;82946.69;5032647;28;20106;-72
2023/11/01 05:51:36;;;;;;;18.50;7.63;;;;;;;-146.27;94.80;82930.63;5034141;28;20416;-72
2023/11/01 05:54:01;;;;;;;29.00;9.10;;;;;;;-146.27;94.60;82898.47;5028228;28;20103;-71
2023/11/01 05:56:27;;;;;;;21.50;8.63;;;;;;;-146.27;94.28;82896.47;5019223;28;20017;-71
2023/11/01 05:58:55;;;;;;;25.77;7.80;;;;;;;-146.27;93.83;82882.41;5014402;28;20128;-74
2023/11/01 06:01:21;;;;;;;22.25;7.38;;;;;;;-146.27;95.04;82932.63;5023825;28;20025;-72
2023/11/01 06:03:50;;;;;;;20.63;7.65;;;;;;;-146.27;95.21;82930.63;5025334;28;20508;-72
2023/11/01 06:06:16;;;;;;;24.92;8.13;;;;;;;-146.27;94.91;82956.75;5020767;28;20382;-72
2023/11/01 06:08:41;;;;;;;21.67;7.47;;;;;;;-146.27;94.25;82900.47;5021089;28;20037;-71
2023/11/01 06:11:07;;;;;;;20.85;6.78;;;;;;;-146.27;93.83;82898.47;5041467;28;20455;-72
2023/11/01 06:13:33;;;;;;;19.27;6.75;;;;;;;-146.27;94.19;82918.56;5041584;28;20029;-72
2023/11/01 06:16:04;;;;;;;25.80;7.32;;;;;;;-146.27;93.53;82882.41;5018778;28;20056;-71
2023/11/01 06:18:31;;;;;;;25.02;6.25;;;;;;;-146.27;92.82;82840.22;5011084;28;20034;-71
2023/11/01 06:20:56;;;;;;;20.30;5.63;;;;;;;-146.27;92.98;82856.28;5024895;28;20032;-72
2023/11/01 06:23:22;;;;;;;21.25;5.25;;;;;;;-146.27;92.87;82834.19;5029190;28;20033;-71
2023/11/01 06:25:47;;;;;;;16.27;4.85;;;;;;;-146.27;93.53;82918.56;5029892;28;20027;-73
2023/11/01 06:28:13;;;;;;;26.40;6.35;;;;;;;-146.27;93.82;82914.53;5031179;28;20017;-72
2023/11/01 06:30:38;;;;;;;21.90;5.05;;;;;;;-146.27;93.58;83000.94;5020707;28;20037;-71
2023/11/01 06:33:04;;;;;;;17.45;4.05;;;;;;;-146.27;92.58;82854.28;5028991;28;20040;-71
2023/11/01 06:35:29;;;;;;;19.25;4.00;;;;;;;-146.27;92.93;82914.53;5026994;28;20029;-71
2023/11/01 06:37:54;;;;;;;13.77;3.53;;;;;;;-146.27;93.56;82916.56;5030135;28;20045;-71
2023/11/01 06:40:20;;;;;;;10.50;3.65;;;;;;;-146.27;92.77;82874.38;5034084;28;20032;-71
2023/11/01 06:42:45;;;;;;;16.95;3.83;;;;;;;-146.27;92.09;82876.38;5029742;28;20375;-74
2023/11/01 06:45:11;;;;;;;17.90;4.20;;;;;;;-146.27;92.79;82922.59;5026203;28;20557;-75
2023/11/01 06:47:37;;;;;;;14.05;3.88;;;;;;;-146.27;92.85;82878.38;5030563;28;20452;-72
2023/11/01 06:50:03;;;;;;;31.15;4.82;;;;;;;-146.27;92.44;82872.34;5037420;28;20104;-73
2023/11/01 06:52:30;;;;;;;12.30;3.65;;;;;;;-146.27;92.10;82892.44;5023905;28;20033;-74
2023/11/01 06:54:55;;;;;;;12.35;3.78;;;;;;;-146.27;92.18;82886.41;5025132;28;20034;-73
2023/11/01 06:57:21;;;;;;;17.75;4.20;;;;;;;-146.27;91.53;82946.69;5026828;28;20082;-73
2023/11/01 06:59:47;;;;;;;20.90;3.88;;;;;;;-146.27;91.80;82848.25;5028035;28;20481;-76
2023/11/01 07:02:12;;;;;;;14.77;3.65;;;;;;;-146.27;92.17;82890.44;5025900;28;20036;-77
2023/11/01 07:04:37;;;;;;;18.17;4.32;;;;;;;-146.27;92.36;82920.56;5027407;28;20036;-76
2023/11/01 07:07:04;;;;;;;20.55;4.28;;;;;;;-146.27;91.98;82934.63;5025120;28;20033;-76
2023/11/01 07:09:29;;;;;;;16.63;3.70;;;;;;;-146.27;91.78;82908.50;5027389;28;20030;-75
2023/11/01 07:11:55;;;;;;;16.17;3.63;;;;;;;-146.27;91.74;82890.44;5026113;28;20040;-74
2023/11/01 07:14:20;;;;;;;20.23;4.43;;;;;;;-146.27;91.34;82826.16;5024740;28;20109;-72
2023/11/01 07:16:46;;;;;;;14.48;3.58;;;;;;;-146.27;91.12;82892.44;5023542;28;20048;-73
2023/11/01 07:19:12;;;;;;;16.30;3.05;;;;;;;-146.27;90.96;82878.38;5017456;28;20025;-75
2023/11/01 07:21:40;;;;;;;14.50;2.88;;;;;;;-146.27;92.31;82982.84;5024143;28;20033;-73
2023/11/01 07:24:07;;;;;;;21.65;3.47;;;;;;;-146.27;91.77;82900.47;5033613;28;20820;-73
2023/11/01 07:26:32;;;;;;;14.23;3.20;;;;;;;-146.27;91.73;82898.47;5035122;28;20568;-75
2023/11/01 07:28:59;;;;;;;12.45;3.40;;;;;;;-146.27;91.62;82922.59;5039153;28;20027;-74
2023/11/01 07:31:25;;;;;;;10.43;2.50;;;;;;;-146.27;91.74;82908.50;5043062;28;20056;-74
2023/11/01 07:33:50;;;;;;;16.95;2.90;;;;;;;-146.27;91.04;82858.28;5027773;28;20029;-74
2023/11/01 07:36:16;;;;;;;15.25;2.63;;;;;;;-146.27;91.31;82894.47;5030513;28;20714;-75
2023/11/01 07:38:41;;;;;;;12.30;2.95;;;;;;;-146.27;90.91;82866.31;5048436;28;20029;-75
2023/11/01 07:41:07;;;;;;;19.50;2.70;;;;;;;-146.27;90.85;82846.25;5045743;28;20021;-73
2023/11/01 07:43:32;;;;;;;13.63;3.72;;;;;;;-146.27;91.00;82862.31;5048595;28;20033;-75
2023/11/01 07:45:58;;;;;;;18.00;2.90;;;;;;;-146.27;91.50;82918.56;5016171;28;20036;-75
2023/11/01 07:48:23;;;;;;;16.45;3.40;;;;;;;-146.27;91.09;82892.44;5028887;28;20064;-74
2023/11/01 07:50:49;;;;;;;17.80;3.08;;;;;;;-146.27;90.96;82886.41;5039361;28;20027;-75
2023/11/01 07:53:14;;;;;;;25.85;3.30;;;;;;;-146.27;90.64;82856.28;5043662;28;20443;-75
2023/11/01 07:55:39;;;;;;;14.27;3.17;;;;;;;-146.27;91.81;82922.59;5050526;28;20119;-74
2023/11/01 07:58:06;;;;;;;10.38;2.53;;;;;;;-146.27;90.67;82874.38;5053294;28;20113;-74
2023/11/01 08:00:31;;;;;;;15.68;2.88;;;;;;;-146.27;90.13;82844.22;5030400;28;20037;-74
2023/11/01 08:02:57;;;;;;;21.10;3.00;;;;;;;-146.27;90.85;82844.22;5028179;28;20026;-73
2023/11/01 08:05:22;;;;;;;13.57;2.05;;;;;;;-146.27;90.53;82874.38;5031603;28;20064;-74
2023/11/01 08:07:48;;;;;;;16.83;3.33;;;;;;;-146.27;89.67;82810.06;5052975;28;20028;-74
2023/11/01 08:10:14;;;;;;;6.70;2.20;;;;;;;-146.27;89.60;82777.94;5041915;28;20029;-75
2023/11/01 08:12:39;;;;;;;14.38;2.38;;;;;;;-146.27;89.91;82840.22;5051555;28;20029;-75
2023/11/01 08:15:05;;;;;;;15.48;3.00;;;;;;;-146.27;89.99;82840.22;5050638;28;20318;-74
2023/11/01 08:17:31;;;;;;;13.95;2.97;;;;;;;-146.27;89.25;82794.00;5039760;28;20501;-74
2023/11/01 08:19:57;;;;;;;14.07;3.00;;;;;;;-146.27;89.20;82800.03;5035175;28;20098;-74
2023/11/01 08:22:23;;;;;;;13.90;2.58;;;;;;;-146.27;88.86;82743.78;5052756;28;20473;-75
2023/11/01 08:24:49;;;;;;;19.15;3.42;;;;;;;-146.27;88.75;82745.78;5037712;28;20039;-75
2023/11/01 08:27:14;;;;;;;13.77;2.55;;;;;;;-146.27;88.91;82745.78;5026129;28;20030;-76
2023/11/01 08:29:42;;;;;;;20.65;2.83;;;;;;;-146.27;88.78;82818.13;5027145;28;20038;-74
2023/11/01 08:32:09;;;;;;;9.68;2.53;;;;;;;-146.27;89.66;82824.13;5030119;28;20860;-73
2023/11/01 08:34:34;;;;;;;20.08;3.05;;;;;;;-146.27;89.00;82753.81;5028198;28;20033;-74
2023/11/01 08:37:00;;;;;;;10.60;2.30;;;;;;;-146.27;89.16;82787.97;5026301;28;20048;-74
2023/11/01 08:39:25;;;;;;;14.70;2.58;;;;;;;-146.27;88.83;82777.94;5025081;28;20033;-74
2023/11/01 08:41:50;;;;;;;10.95;2.65;;;;;;;-146.27;88.23;82723.69;5026022;28;20048;-75
2023/11/01 08:44:16;;;;;;;13.05;2.00;;;;;;;-146.27;88.64;82785.97;5033040;28;20049;-75
2023/11/01 08:46:41;;;;;;;9.90;1.63;;;;;;;-146.27;87.88;82729.72;5024758;28;20040;-75
2023/11/01 08:49:06;;;;;;;21.33;2.90;;;;;;;-146.27;87.84;82765.88;5030397;28;20115;-74
2023/11/01 08:51:32;;;;;;;14.32;2.30;;;;;;;-146.27;88.62;82796.00;5020774;28;20025;-74
2023/11/01 08:54:00;;;;;;;12.02;2.38;;;;;;;-146.27;87.86;82699.59;5041564;28;20401;-74
2023/11/01 08:56:26;;;;;;;13.27;2.22;;;;;;;-146.27;87.90;82733.72;5040126;28;20056;-74
2023/11/01 08:58:52;;;;;;;8.73;2.15;;;;;;;-146.27;87.37;82709.63;5032072;28;20064;-73
2023/11/01 09:01:18;;;;;;;14.20;2.20;;;;;;;-146.27;87.03;82681.50;5048341;28;20029;-73
2023/11/01 09:03:43;;;;;;;9.93;1.95;;;;;;;-146.27;87.02;82725.69;5035084;28;20481;-74
2023/11/01 09:06:08;;;;;;;10.18;1.75;;;;;;;-146.27;87.46;82725.69;5048120;28;20079;-73
2023/11/01 09:08:34;;;;;;;8.60;1.85;;;;;;;-146.27;86.59;82673.47;5027578;28;20087;-73
2023/11/01 09:10:59;;;;;;;12.38;2.05;;;;;;;-146.27;86.22;82573.00;5050587;28;20078;-72
2023/11/01 09:13:24;;;;;;;11.82;2.17;;;;;;;-146.27;86.29;82621.22;5050921;28;20029;-74
2023/11/01 09:15:50;;;;;;;20.63;3.67;;;;;;;-146.27;86.13;82591.09;5045436;28;20504;-72
2023/11/01 09:18:15;;;;;;;10.15;2.42;;;;;;;-146.27;85.97;82647.34;5046893;28;20048;-72
2023/11/01 09:20:41;;;;;;;10.57;2.42;;;;;;;-146.27;85.94;82609.19;5033892;28;20036;-72
2023/11/01 09:23:06;;;;;;;10.70;2.47;;;;;;;-146.27;85.43;82605.16;5048202;28;20074;-71
2023/11/01 09:25:31;;;;;;;15.90;2.55;;;;;;;-146.27;85.49;82633.28;5037229;28;20477;-71
2023/11/01 09:27:58;;;;;;;14.23;2.35;;;;;;;-146.27;85.70;82564.97;5033391;28;20034;-70
2023/11/01 09:30:23;;;;;;;13.00;2.00;;;;;;;-146.27;85.59;82510.75;5030505;28;20030;-72
2023/11/01 09:32:49;;;;;;;10.73;2.55;;;;;;;-146.27;85.26;82571.00;5032467;28;20481;-70
2023/11/01 09:35:14;;;;;;;10.57;2.03;;;;;;;-146.27;85.23;82605.16;5039684;28;20032;-71
2023/11/01 09:37:39;;;;;;;16.45;2.65;;;;;;;-146.27;84.92;82571.00;5029974;28;20390;-70
2023/11/01 09:40:06;;;;;;;9.95;2.00;;;;;;;-146.27;84.53;82564.97;5028342;28;20029;-71
2023/11/01 09:42:32;;;;;;;6.35;1.73;;;;;;;-146.27;84.20;82554.94;5051355;28;20040;-70
2023/11/01 09:44:58;;;;;;;14.80;2.05;;;;;;;-146.27;84.10;82560.97;5051324;28;20424;-71
2023/11/01 09:47:25;;;;;;;9.90;1.85;;;;;;;-146.27;84.03;82560.97;5036573;28;20088;-71
2023/11/01 09:49:53;;;;;;;13.55;1.67;;;;;;;-146.27;83.87;82542.88;5041751;28;20075;-70
2023/11/01 09:52:18;;;;;;;12.32;1.80;;;;;;;-146.27;83.80;82637.31;5051273;28;20104;-69
2023/11/01 09:54:44;;;;;;;11.88;1.95;;;;;;;-146.27;84.09;82627.25;5048450;28;20111;-70
2023/11/01 09:57:14;;;;;;;14.90;2.05;;;;;;;-146.27;83.63;82601.16;5042972;28;20432;-70
2023/11/01 09:59:40;;;;;;;11.10;1.75;;;;;;;-146.27;83.24;82569.00;5033104;28;20032;-71
2023/11/01 10:02:10;;;;;;;10.18;2.67;;;;;;;-146.27;83.65;82633.28;5045176;28;20025;-71
2023/11/01 10:04:35;;;;;;;11.93;1.90;;;;;;;-146.27;83.82;82603.16;5022737;28;20119;-70
2023/11/01 10:07:01;;;;;;;11.02;1.83;;;;;;;-146.27;84.14;82673.47;5034273;28;20029;-71
2023/11/01 10:09:28;;;;;;;7.97;1.70;;;;;;;-146.27;84.05;82651.38;5034303;28;20033;-71
2023/11/01 10:11:54;;;;;;;3.80;1.33;;;;;;;-146.27;83.80;82629.28;5035875;28;20114;-71
2023/11/01 10:14:30;;;;;;;11.93;2.00;;;;;;;-146.27;83.17;82575.03;5030052;28;20029;-72
2023/11/01 10:16:57;;;;;;;9.90;1.75;;;;;;;-146.27;83.36;82649.34;5024940;28;20073;-71
2023/11/01 10:19:26;;;;;;;6.82;1.73;;;;;;;-146.27;83.75;82645.34;5034076;28;20039;-71
2023/11/01 10:21:52;;;;;;;5.00;1.35;;;;;;;-146.27;83.22;82603.16;5030652;28;20457;-71
2023/11/01 10:24:20;;;;;;;11.10;1.95;;;;;;;-146.27;83.77;82719.66;5030496;28;20492;-72
2023/11/01 10:26:45;;;;;;;8.20;1.58;;;;;;;-146.27;83.37;82625.25;5018047;28;20185;-71
2023/11/01 10:29:10;;;;;;;7.72;2.13;;;;;;;-146.27;82.71;82583.06;5015135;28;20122;-71
2023/11/01 10:31:36;;;;;;;16.92;2.17;;;;;;;-146.27;83.09;82625.25;5030751;28;20056;-71
2023/11/01 10:34:11;;;;;;;5.55;1.42;;;;;;;-146.27;82.64;82629.28;5029763;28;20029;-70
2023/11/01 10:36:57;;;;;;;7.45;1.38;;;;;;;-146.27;82.47;82605.16;5030493;28;20509;-70
2023/11/01 10:39:23;;;;;;;12.00;2.05;;;;;;;-146.27;82.06;82575.03;5024562;28;20045;-70
2023/11/01 10:41:50;;;;;;;11.65;1.67;;;;;;;-146.27;82.23;82595.13;5010730;28;20026;-69
2023/11/01 10:44:17;;;;;;;31.58;2.63;;;;;;;-146.27;82.93;82637.31;5010704;28;20101;-70
2023/11/01 10:46:42;;;;;;;10.07;1.80;;;;;;;-146.27;82.31;82569.00;5010732;28;20117;-73
2023/11/01 10:49:11;;;;;;;8.77;1.70;;;;;;;-146.27;81.72;82577.03;5010224;28;20122;-69
2023/11/01 10:51:38;;;;;;;8.98;1.77;;;;;;;-146.27;81.66;82524.81;5050446;28;20025;-70
2023/11/01 10:54:03;;;;;;;8.75;1.95;;;;;;;-146.27;81.08;82569.00;5050216;28;20492;-70
2023/11/01 10:56:29;;;;;;;13.02;1.77;;;;;;;-146.27;81.32;82556.94;5050090;28;20096;-69
2023/11/01 10:59:03;;;;;;;14.95;1.73;;;;;;;-146.27;81.38;82573.00;5049408;28;20044;-71
2023/11/01 11:01:41;;;;;;;8.52;1.83;;;;;;;-146.27;81.13;82484.63;5010513;28;20036;-71
2023/11/01 11:04:12;;;;;;;13.48;2.85;;;;;;;-146.27;80.70;82532.84;5017235;28;20116;-71